sensor_id;sensor_type;location;lat;lon;timestamp;P1;durP1;ratioP1;P2;durP2;ratioP2
41689;SDS011;27372;42.658;23.256;2023-12-04T00:01:30;7.35;;;4.50;;
41689;SDS011;27372;42.658;23.256;2023-12-04T00:03:56;8.48;;;4.80;;
41689;SDS011;27372;42.658;23.256;2023-12-04T00:06:21;8.07;;;4.35;;
41689;SDS011;27372;42.658;23.256;2023-12-04T00:08:48;7.65;;;4.40;;
41689;SDS011;27372;42.658;23.256;2023-12-04T00:11:13;5.47;;;3.55;;
41689;SDS011;27372;42.658;23.256;2023-12-04T00:13:39;7.38;;;3.90;;
41689;SDS011;27372;42.658;23.256;2023-12-04T00:16:04;9.25;;;4.05;;
41689;SDS011;27372;42.658;23.256;2023-12-04T00:18:31;7.90;;;4.38;;
41689;SDS011;27372;42.658;23.256;2023-12-04T00:20:56;5.55;;;3.30;;
41689;SDS011;27372;42.658;23.256;2023-12-04T00:23:22;5.25;;;3.45;;
41689;SDS011;27372;42.658;23.256;2023-12-04T00:25:47;9.13;;;3.42;;
41689;SDS011;27372;42.658;23.256;2023-12-04T00:28:13;6.22;;;3.72;;
41689;SDS011;27372;42.658;23.256;2023-12-04T00:30:38;7.68;;;4.20;;
41689;SDS011;27372;42.658;23.256;2023-12-04T00:33:04;5.85;;;3.35;;
41689;SDS011;27372;42.658;23.256;2023-12-04T00:35:29;6.90;;;4.10;;
41689;SDS011;27372;42.658;23.256;2023-12-04T00:37:55;6.03;;;3.40;;
41689;SDS011;27372;42.658;23.256;2023-12-04T00:40:20;7.85;;;3.90;;
41689;SDS011;27372;42.658;23.256;2023-12-04T00:42:46;8.95;;;4.50;;
41689;SDS011;27372;42.658;23.256;2023-12-04T00:45:11;8.20;;;4.55;;
41689;SDS011;27372;42.658;23.256;2023-12-04T00:47:37;6.72;;;4.05;;
41689;SDS011;27372;42.658;23.256;2023-12-04T00:50:02;8.75;;;4.18;;
41689;SDS011;27372;42.658;23.256;2023-12-04T00:52:28;9.48;;;4.47;;
41689;SDS011;27372;42.658;23.256;2023-12-04T00:54:53;7.13;;;4.28;;
41689;SDS011;27372;42.658;23.256;2023-12-04T00:57:19;9.13;;;4.70;;
41689;SDS011;27372;42.658;23.256;2023-12-04T00:59:44;7.80;;;4.82;;
41689;SDS011;27372;42.658;23.256;2023-12-04T01:02:10;6.70;;;4.32;;
41689;SDS011;27372;42.658;23.256;2023-12-04T01:04:35;8.38;;;4.60;;
41689;SDS011;27372;42.658;23.256;2023-12-04T01:07:01;8.70;;;4.57;;
41689;SDS011;27372;42.658;23.256;2023-12-04T01:09:26;7.07;;;4.05;;
41689;SDS011;27372;42.658;23.256;2023-12-04T01:11:52;8.93;;;4.53;;
41689;SDS011;27372;42.658;23.256;2023-12-04T01:14:19;8.98;;;4.70;;
41689;SDS011;27372;42.658;23.256;2023-12-04T01:16:45;7.43;;;3.95;;
41689;SDS011;27372;42.658;23.256;2023-12-04T01:19:11;8.05;;;4.55;;
41689;SDS011;27372;42.658;23.256;2023-12-04T01:21:36;4.88;;;3.30;;
41689;SDS011;27372;42.658;23.256;2023-12-04T01:24:01;9.18;;;4.68;;
41689;SDS011;27372;42.658;23.256;2023-12-04T01:26:27;8.43;;;4.78;;
41689;SDS011;27372;42.658;23.256;2023-12-04T01:28:52;8.73;;;4.93;;
41689;SDS011;27372;42.658;23.256;2023-12-04T01:31:18;9.52;;;5.07;;
41689;SDS011;27372;42.658;23.256;2023-12-04T01:33:43;10.05;;;5.05;;
41689;SDS011;27372;42.658;23.256;2023-12-04T01:36:09;8.38;;;4.95;;
41689;SDS011;27372;42.658;23.256;2023-12-04T01:38:35;7.40;;;4.47;;
41689;SDS011;27372;42.658;23.256;2023-12-04T01:41:02;8.27;;;4.70;;
41689;SDS011;27372;42.658;23.256;2023-12-04T01:43:27;8.68;;;5.20;;
41689;SDS011;27372;42.658;23.256;2023-12-04T01:45:53;10.15;;;5.70;;
41689;SDS011;27372;42.658;23.256;2023-12-04T01:48:19;9.98;;;5.18;;
41689;SDS011;27372;42.658;23.256;2023-12-04T01:50:45;7.82;;;4.30;;
41689;SDS011;27372;42.658;23.256;2023-12-04T01:53:11;9.27;;;5.25;;
41689;SDS011;27372;42.658;23.256;2023-12-04T01:55:37;9.15;;;5.32;;
41689;SDS011;27372;42.658;23.256;2023-12-04T01:58:03;7.78;;;4.53;;
41689;SDS011;27372;42.658;23.256;2023-12-04T02:00:31;7.82;;;4.57;;
41689;SDS011;27372;42.658;23.256;2023-12-04T02:02:56;11.63;;;4.53;;
41689;SDS011;27372;42.658;23.256;2023-12-04T02:05:23;7.85;;;4.28;;
41689;SDS011;27372;42.658;23.256;2023-12-04T02:07:49;8.55;;;4.57;;
41689;SDS011;27372;42.658;23.256;2023-12-04T02:10:15;8.73;;;4.78;;
41689;SDS011;27372;42.658;23.256;2023-12-04T02:12:40;9.50;;;4.78;;
41689;SDS011;27372;42.658;23.256;2023-12-04T02:15:06;11.05;;;5.50;;
41689;SDS011;27372;42.658;23.256;2023-12-04T02:17:32;8.85;;;4.93;;
41689;SDS011;27372;42.658;23.256;2023-12-04T02:19:58;8.43;;;5.05;;
41689;SDS011;27372;42.658;23.256;2023-12-04T02:22:24;6.70;;;4.63;;
41689;SDS011;27372;42.658;23.256;2023-12-04T02:24:49;7.00;;;3.63;;
41689;SDS011;27372;42.658;23.256;2023-12-04T02:29:49;6.47;;;2.88;;
41689;SDS011;27372;42.658;23.256;2023-12-04T02:32:18;5.70;;;3.38;;
41689;SDS011;27372;42.658;23.256;2023-12-04T02:34:45;6.47;;;3.15;;
41689;SDS011;27372;42.658;23.256;2023-12-04T02:37:12;6.78;;;3.85;;
41689;SDS011;27372;42.658;23.256;2023-12-04T02:39:39;7.70;;;3.65;;
41689;SDS011;27372;42.658;23.256;2023-12-04T02:42:05;8.57;;;4.53;;
41689;SDS011;27372;42.658;23.256;2023-12-04T02:44:31;8.13;;;4.15;;
41689;SDS011;27372;42.658;23.256;2023-12-04T02:46:56;7.25;;;3.97;;
41689;SDS011;27372;42.658;23.256;2023-12-04T02:49:22;5.78;;;3.90;;
41689;SDS011;27372;42.658;23.256;2023-12-04T02:51:47;7.82;;;4.68;;
41689;SDS011;27372;42.658;23.256;2023-12-04T02:54:13;9.10;;;5.30;;
41689;SDS011;27372;42.658;23.256;2023-12-04T02:56:38;5.80;;;3.50;;
41689;SDS011;27372;42.658;23.256;2023-12-04T02:59:04;9.77;;;4.30;;
41689;SDS011;27372;42.658;23.256;2023-12-04T03:01:29;7.55;;;4.38;;
41689;SDS011;27372;42.658;23.256;2023-12-04T03:03:55;9.27;;;4.60;;
41689;SDS011;27372;42.658;23.256;2023-12-04T03:06:20;7.30;;;4.03;;
41689;SDS011;27372;42.658;23.256;2023-12-04T03:08:46;8.18;;;4.45;;
41689;SDS011;27372;42.658;23.256;2023-12-04T03:11:11;9.13;;;4.35;;
41689;SDS011;27372;42.658;23.256;2023-12-04T03:13:37;8.20;;;4.88;;
41689;SDS011;27372;42.658;23.256;2023-12-04T03:16:02;7.50;;;4.22;;
41689;SDS011;27372;42.658;23.256;2023-12-04T03:18:28;7.80;;;4.20;;
41689;SDS011;27372;42.658;23.256;2023-12-04T03:20:54;8.95;;;4.50;;
41689;SDS011;27372;42.658;23.256;2023-12-04T03:23:19;4.88;;;3.22;;
41689;SDS011;27372;42.658;23.256;2023-12-04T03:25:45;8.00;;;4.85;;
41689;SDS011;27372;42.658;23.256;2023-12-04T03:28:10;8.25;;;4.93;;
41689;SDS011;27372;42.658;23.256;2023-12-04T03:30:36;8.18;;;5.03;;
41689;SDS011;27372;42.658;23.256;2023-12-04T03:33:01;8.18;;;4.57;;
41689;SDS011;27372;42.658;23.256;2023-12-04T03:35:27;7.82;;;4.55;;
41689;SDS011;27372;42.658;23.256;2023-12-04T03:37:52;7.80;;;4.97;;
41689;SDS011;27372;42.658;23.256;2023-12-04T03:40:18;8.70;;;4.55;;
41689;SDS011;27372;42.658;23.256;2023-12-04T03:42:43;8.55;;;4.70;;
41689;SDS011;27372;42.658;23.256;2023-12-04T03:45:09;6.85;;;3.67;;
41689;SDS011;27372;42.658;23.256;2023-12-04T03:47:34;9.18;;;5.22;;
41689;SDS011;27372;42.658;23.256;2023-12-04T03:50:00;9.25;;;5.10;;
41689;SDS011;27372;42.658;23.256;2023-12-04T03:52:25;5.63;;;3.80;;
41689;SDS011;27372;42.658;23.256;2023-12-04T03:54:51;8.50;;;4.43;;
41689;SDS011;27372;42.658;23.256;2023-12-04T03:57:16;8.50;;;4.78;;
41689;SDS011;27372;42.658;23.256;2023-12-04T03:59:43;9.18;;;4.38;;
41689;SDS011;27372;42.658;23.256;2023-12-04T04:02:08;11.27;;;4.72;;
41689;SDS011;27372;42.658;23.256;2023-12-04T04:04:34;8.23;;;5.07;;
41689;SDS011;27372;42.658;23.256;2023-12-04T04:06:59;7.15;;;4.47;;
41689;SDS011;27372;42.658;23.256;2023-12-04T04:09:25;8.07;;;4.90;;
41689;SDS011;27372;42.658;23.256;2023-12-04T04:11:50;6.75;;;4.25;;
41689;SDS011;27372;42.658;23.256;2023-12-04T04:14:16;9.00;;;4.78;;
41689;SDS011;27372;42.658;23.256;2023-12-04T04:16:41;8.27;;;4.65;;
41689;SDS011;27372;42.658;23.256;2023-12-04T04:19:06;7.60;;;4.40;;
41689;SDS011;27372;42.658;23.256;2023-12-04T04:21:32;7.85;;;4.18;;
41689;SDS011;27372;42.658;23.256;2023-12-04T04:23:57;7.95;;;4.45;;
41689;SDS011;27372;42.658;23.256;2023-12-04T04:26:23;8.93;;;4.13;;
41689;SDS011;27372;42.658;23.256;2023-12-04T04:28:48;8.05;;;4.25;;
41689;SDS011;27372;42.658;23.256;2023-12-04T04:31:14;5.88;;;3.22;;
41689;SDS011;27372;42.658;23.256;2023-12-04T04:33:39;8.63;;;3.92;;
41689;SDS011;27372;42.658;23.256;2023-12-04T04:36:04;7.53;;;4.15;;
41689;SDS011;27372;42.658;23.256;2023-12-04T04:38:30;8.43;;;4.40;;
41689;SDS011;27372;42.658;23.256;2023-12-04T04:40:55;9.18;;;4.25;;
41689;SDS011;27372;42.658;23.256;2023-12-04T04:43:21;7.78;;;4.57;;
41689;SDS011;27372;42.658;23.256;2023-12-04T04:45:46;7.85;;;4.35;;
41689;SDS011;27372;42.658;23.256;2023-12-04T04:48:12;7.72;;;4.50;;
41689;SDS011;27372;42.658;23.256;2023-12-04T04:50:37;10.07;;;4.90;;
41689;SDS011;27372;42.658;23.256;2023-12-04T04:53:03;7.07;;;4.22;;
41689;SDS011;27372;42.658;23.256;2023-12-04T04:55:28;8.40;;;4.00;;
41689;SDS011;27372;42.658;23.256;2023-12-04T04:57:54;8.43;;;3.83;;
41689;SDS011;27372;42.658;23.256;2023-12-04T05:00:20;6.57;;;3.97;;
41689;SDS011;27372;42.658;23.256;2023-12-04T05:02:45;9.20;;;4.55;;
41689;SDS011;27372;42.658;23.256;2023-12-04T05:05:11;7.30;;;3.95;;
41689;SDS011;27372;42.658;23.256;2023-12-04T05:07:36;6.00;;;3.70;;
41689;SDS011;27372;42.658;23.256;2023-12-04T05:10:02;6.30;;;3.88;;
41689;SDS011;27372;42.658;23.256;2023-12-04T05:12:27;5.65;;;3.53;;
41689;SDS011;27372;42.658;23.256;2023-12-04T05:14:53;6.72;;;3.80;;
41689;SDS011;27372;42.658;23.256;2023-12-04T05:17:18;5.10;;;2.72;;
41689;SDS011;27372;42.658;23.256;2023-12-04T05:19:44;5.07;;;3.25;;
41689;SDS011;27372;42.658;23.256;2023-12-04T05:22:09;7.78;;;3.60;;
41689;SDS011;27372;42.658;23.256;2023-12-04T05:24:34;6.95;;;4.00;;
41689;SDS011;27372;42.658;23.256;2023-12-04T05:27:00;7.03;;;3.45;;
41689;SDS011;27372;42.658;23.256;2023-12-04T05:29:27;6.93;;;3.80;;
41689;SDS011;27372;42.658;23.256;2023-12-04T05:31:52;8.82;;;3.80;;
41689;SDS011;27372;42.658;23.256;2023-12-04T05:34:18;10.80;;;4.00;;
41689;SDS011;27372;42.658;23.256;2023-12-04T05:36:43;6.25;;;3.53;;
41689;SDS011;27372;42.658;23.256;2023-12-04T05:39:09;7.15;;;4.07;;
41689;SDS011;27372;42.658;23.256;2023-12-04T05:41:34;6.30;;;3.63;;
41689;SDS011;27372;42.658;23.256;2023-12-04T05:44:00;8.38;;;4.50;;
41689;SDS011;27372;42.658;23.256;2023-12-04T05:46:26;10.15;;;3.92;;
41689;SDS011;27372;42.658;23.256;2023-12-04T05:48:51;6.82;;;3.83;;
41689;SDS011;27372;42.658;23.256;2023-12-04T05:51:17;7.15;;;4.30;;
41689;SDS011;27372;42.658;23.256;2023-12-04T05:53:42;7.45;;;4.47;;
41689;SDS011;27372;42.658;23.256;2023-12-04T05:56:08;10.88;;;5.53;;
41689;SDS011;27372;42.658;23.256;2023-12-04T05:58:34;8.35;;;4.85;;
41689;SDS011;27372;42.658;23.256;2023-12-04T06:01:00;10.90;;;5.30;;
41689;SDS011;27372;42.658;23.256;2023-12-04T06:03:25;8.40;;;5.03;;
41689;SDS011;27372;42.658;23.256;2023-12-04T06:05:51;11.75;;;5.90;;
41689;SDS011;27372;42.658;23.256;2023-12-04T06:08:16;9.23;;;5.80;;
41689;SDS011;27372;42.658;23.256;2023-12-04T06:10:42;10.40;;;6.00;;
41689;SDS011;27372;42.658;23.256;2023-12-04T06:13:07;9.57;;;5.63;;
41689;SDS011;27372;42.658;23.256;2023-12-04T06:15:33;15.77;;;6.10;;
41689;SDS011;27372;42.658;23.256;2023-12-04T06:17:58;11.77;;;5.40;;
41689;SDS011;27372;42.658;23.256;2023-12-04T06:20:24;8.23;;;4.95;;
41689;SDS011;27372;42.658;23.256;2023-12-04T06:22:49;8.98;;;4.97;;
41689;SDS011;27372;42.658;23.256;2023-12-04T06:25:15;8.30;;;4.72;;
41689;SDS011;27372;42.658;23.256;2023-12-04T06:27:41;11.82;;;5.38;;
41689;SDS011;27372;42.658;23.256;2023-12-04T06:30:07;8.52;;;5.07;;
41689;SDS011;27372;42.658;23.256;2023-12-04T06:32:32;8.57;;;4.45;;
41689;SDS011;27372;42.658;23.256;2023-12-04T06:34:58;8.10;;;4.75;;
41689;SDS011;27372;42.658;23.256;2023-12-04T06:37:24;7.55;;;4.32;;
41689;SDS011;27372;42.658;23.256;2023-12-04T06:39:50;7.50;;;4.10;;
41689;SDS011;27372;42.658;23.256;2023-12-04T06:42:18;8.75;;;4.47;;
41689;SDS011;27372;42.658;23.256;2023-12-04T06:44:44;10.00;;;4.95;;
41689;SDS011;27372;42.658;23.256;2023-12-04T06:47:09;8.32;;;5.03;;
41689;SDS011;27372;42.658;23.256;2023-12-04T06:49:37;10.25;;;5.10;;
41689;SDS011;27372;42.658;23.256;2023-12-04T06:52:03;7.07;;;3.97;;
41689;SDS011;27372;42.658;23.256;2023-12-04T06:54:28;8.27;;;4.40;;
41689;SDS011;27372;42.658;23.256;2023-12-04T06:56:54;6.80;;;3.70;;
41689;SDS011;27372;42.658;23.256;2023-12-04T06:59:20;8.65;;;4.10;;
41689;SDS011;27372;42.658;23.256;2023-12-04T07:01:45;7.50;;;4.47;;
41689;SDS011;27372;42.658;23.256;2023-12-04T07:04:11;8.23;;;4.68;;
41689;SDS011;27372;42.658;23.256;2023-12-04T07:06:38;11.02;;;5.28;;
41689;SDS011;27372;42.658;23.256;2023-12-04T07:09:04;9.43;;;5.38;;
41689;SDS011;27372;42.658;23.256;2023-12-04T07:11:30;7.72;;;4.38;;
41689;SDS011;27372;42.658;23.256;2023-12-04T07:13:56;12.35;;;5.50;;
41689;SDS011;27372;42.658;23.256;2023-12-04T07:16:22;9.05;;;5.45;;
41689;SDS011;27372;42.658;23.256;2023-12-04T07:18:47;8.18;;;4.45;;
41689;SDS011;27372;42.658;23.256;2023-12-04T07:21:13;9.32;;;4.70;;
41689;SDS011;27372;42.658;23.256;2023-12-04T07:23:38;10.50;;;5.32;;
41689;SDS011;27372;42.658;23.256;2023-12-04T07:26:03;12.07;;;5.47;;
41689;SDS011;27372;42.658;23.256;2023-12-04T07:28:29;9.25;;;5.38;;
41689;SDS011;27372;42.658;23.256;2023-12-04T07:30:55;9.25;;;5.28;;
41689;SDS011;27372;42.658;23.256;2023-12-04T07:33:21;9.73;;;5.07;;
41689;SDS011;27372;42.658;23.256;2023-12-04T07:35:47;9.68;;;5.80;;
41689;SDS011;27372;42.658;23.256;2023-12-04T07:38:12;10.32;;;5.18;;
41689;SDS011;27372;42.658;23.256;2023-12-04T07:40:37;9.90;;;5.43;;
41689;SDS011;27372;42.658;23.256;2023-12-04T07:43:03;9.60;;;5.20;;
41689;SDS011;27372;42.658;23.256;2023-12-04T07:45:28;8.75;;;4.78;;
41689;SDS011;27372;42.658;23.256;2023-12-04T07:47:54;10.55;;;5.80;;
41689;SDS011;27372;42.658;23.256;2023-12-04T07:50:19;11.45;;;5.75;;
41689;SDS011;27372;42.658;23.256;2023-12-04T07:52:45;8.30;;;5.10;;
41689;SDS011;27372;42.658;23.256;2023-12-04T07:55:10;8.35;;;5.40;;
41689;SDS011;27372;42.658;23.256;2023-12-04T07:57:36;11.05;;;5.70;;
41689;SDS011;27372;42.658;23.256;2023-12-04T08:00:01;8.23;;;4.88;;
41689;SDS011;27372;42.658;23.256;2023-12-04T08:02:27;8.45;;;4.68;;
41689;SDS011;27372;42.658;23.256;2023-12-04T08:04:53;7.38;;;4.50;;
41689;SDS011;27372;42.658;23.256;2023-12-04T08:07:18;11.75;;;5.82;;
41689;SDS011;27372;42.658;23.256;2023-12-04T08:09:44;9.35;;;5.25;;
41689;SDS011;27372;42.658;23.256;2023-12-04T08:12:09;7.47;;;4.90;;
41689;SDS011;27372;42.658;23.256;2023-12-04T08:14:35;10.90;;;5.90;;
41689;SDS011;27372;42.658;23.256;2023-12-04T08:17:00;8.38;;;5.10;;
41689;SDS011;27372;42.658;23.256;2023-12-04T08:19:26;9.52;;;5.20;;
41689;SDS011;27372;42.658;23.256;2023-12-04T08:21:51;7.80;;;4.75;;
41689;SDS011;27372;42.658;23.256;2023-12-04T08:24:17;9.60;;;5.47;;
41689;SDS011;27372;42.658;23.256;2023-12-04T08:26:44;10.07;;;4.95;;
41689;SDS011;27372;42.658;23.256;2023-12-04T08:29:11;8.63;;;4.90;;
41689;SDS011;27372;42.658;23.256;2023-12-04T08:31:36;7.75;;;4.55;;
41689;SDS011;27372;42.658;23.256;2023-12-04T08:34:02;7.40;;;4.50;;
41689;SDS011;27372;42.658;23.256;2023-12-04T08:36:27;7.40;;;4.40;;
41689;SDS011;27372;42.658;23.256;2023-12-04T08:38:53;8.82;;;4.53;;
41689;SDS011;27372;42.658;23.256;2023-12-04T08:41:18;8.70;;;4.97;;
41689;SDS011;27372;42.658;23.256;2023-12-04T08:43:44;8.05;;;4.80;;
41689;SDS011;27372;42.658;23.256;2023-12-04T08:46:13;6.45;;;4.15;;
41689;SDS011;27372;42.658;23.256;2023-12-04T08:48:42;8.68;;;4.50;;
41689;SDS011;27372;42.658;23.256;2023-12-04T08:51:08;4.68;;;3.15;;
41689;SDS011;27372;42.658;23.256;2023-12-04T08:53:33;6.97;;;4.32;;
41689;SDS011;27372;42.658;23.256;2023-12-04T08:55:59;6.07;;;3.95;;
41689;SDS011;27372;42.658;23.256;2023-12-04T08:58:25;7.07;;;4.10;;
41689;SDS011;27372;42.658;23.256;2023-12-04T09:00:50;7.85;;;3.63;;
41689;SDS011;27372;42.658;23.256;2023-12-04T09:03:15;6.25;;;4.20;;
41689;SDS011;27372;42.658;23.256;2023-12-04T09:05:41;5.47;;;3.63;;
41689;SDS011;27372;42.658;23.256;2023-12-04T09:08:07;6.40;;;4.00;;
41689;SDS011;27372;42.658;23.256;2023-12-04T09:10:33;4.88;;;3.40;;
41689;SDS011;27372;42.658;23.256;2023-12-04T09:12:58;7.35;;;3.90;;
41689;SDS011;27372;42.658;23.256;2023-12-04T09:15:24;6.75;;;3.78;;
41689;SDS011;27372;42.658;23.256;2023-12-04T09:17:49;8.45;;;3.95;;
41689;SDS011;27372;42.658;23.256;2023-12-04T09:20:15;6.20;;;3.72;;
41689;SDS011;27372;42.658;23.256;2023-12-04T09:22:40;6.03;;;4.20;;
41689;SDS011;27372;42.658;23.256;2023-12-04T09:25:06;5.55;;;3.75;;
41689;SDS011;27372;42.658;23.256;2023-12-04T09:27:33;5.53;;;3.63;;
41689;SDS011;27372;42.658;23.256;2023-12-04T09:29:59;6.05;;;3.80;;
41689;SDS011;27372;42.658;23.256;2023-12-04T09:32:25;5.22;;;3.40;;
41689;SDS011;27372;42.658;23.256;2023-12-04T09:34:50;4.63;;;3.35;;
41689;SDS011;27372;42.658;23.256;2023-12-04T09:37:15;5.15;;;3.42;;
41689;SDS011;27372;42.658;23.256;2023-12-04T09:39:41;5.78;;;3.88;;
41689;SDS011;27372;42.658;23.256;2023-12-04T09:42:07;6.15;;;4.22;;
41689;SDS011;27372;42.658;23.256;2023-12-04T09:44:32;6.03;;;4.05;;
41689;SDS011;27372;42.658;23.256;2023-12-04T09:47:01;8.40;;;3.95;;
41689;SDS011;27372;42.658;23.256;2023-12-04T09:49:28;6.40;;;4.00;;
41689;SDS011;27372;42.658;23.256;2023-12-04T09:51:54;7.82;;;4.53;;
41689;SDS011;27372;42.658;23.256;2023-12-04T09:54:22;6.82;;;4.43;;
41689;SDS011;27372;42.658;23.256;2023-12-04T09:56:49;8.70;;;4.85;;
41689;SDS011;27372;42.658;23.256;2023-12-04T09:59:15;7.82;;;4.65;;
41689;SDS011;27372;42.658;23.256;2023-12-04T10:01:42;8.10;;;4.40;;
41689;SDS011;27372;42.658;23.256;2023-12-04T10:04:09;6.10;;;4.32;;
41689;SDS011;27372;42.658;23.256;2023-12-04T10:06:36;5.68;;;3.83;;
41689;SDS011;27372;42.658;23.256;2023-12-04T10:09:03;5.53;;;3.95;;
41689;SDS011;27372;42.658;23.256;2023-12-04T10:11:29;6.00;;;4.10;;
41689;SDS011;27372;42.658;23.256;2023-12-04T10:13:55;5.57;;;4.10;;
41689;SDS011;27372;42.658;23.256;2023-12-04T10:16:35;7.70;;;4.05;;
41689;SDS011;27372;42.658;23.256;2023-12-04T10:19:15;6.28;;;4.20;;
41689;SDS011;27372;42.658;23.256;2023-12-04T10:21:57;6.13;;;4.00;;
41689;SDS011;27372;42.658;23.256;2023-12-04T10:26:56;5.95;;;4.10;;
41689;SDS011;27372;42.658;23.256;2023-12-04T10:29:21;5.78;;;4.03;;
41689;SDS011;27372;42.658;23.256;2023-12-04T10:31:47;7.95;;;4.10;;
41689;SDS011;27372;42.658;23.256;2023-12-04T10:34:15;7.10;;;4.22;;
41689;SDS011;27372;42.658;23.256;2023-12-04T10:36:41;5.50;;;4.25;;
41689;SDS011;27372;42.658;23.256;2023-12-04T10:39:06;9.75;;;6.93;;
41689;SDS011;27372;42.658;23.256;2023-12-04T10:41:32;6.70;;;4.85;;
41689;SDS011;27372;42.658;23.256;2023-12-04T10:43:58;6.43;;;4.72;;
41689;SDS011;27372;42.658;23.256;2023-12-04T10:46:25;7.03;;;4.80;;
41689;SDS011;27372;42.658;23.256;2023-12-04T10:48:52;8.20;;;4.55;;
41689;SDS011;27372;42.658;23.256;2023-12-04T10:51:18;7.20;;;4.72;;
41689;SDS011;27372;42.658;23.256;2023-12-04T10:53:50;7.03;;;4.05;;
41689;SDS011;27372;42.658;23.256;2023-12-04T10:56:19;6.40;;;4.32;;
41689;SDS011;27372;42.658;23.256;2023-12-04T10:58:53;7.55;;;4.72;;
41689;SDS011;27372;42.658;23.256;2023-12-04T11:01:19;7.18;;;4.40;;
41689;SDS011;27372;42.658;23.256;2023-12-04T11:06:16;5.70;;;4.23;;
41689;SDS011;27372;42.658;23.256;2023-12-04T11:08:45;7.28;;;5.38;;
41689;SDS011;27372;42.658;23.256;2023-12-04T11:11:15;5.78;;;4.35;;
41689;SDS011;27372;42.658;23.256;2023-12-04T11:13:45;7.72;;;4.32;;
41689;SDS011;27372;42.658;23.256;2023-12-04T11:16:18;6.10;;;4.40;;
41689;SDS011;27372;42.658;23.256;2023-12-04T11:18:51;6.43;;;4.78;;
41689;SDS011;27372;42.658;23.256;2023-12-04T11:21:24;6.43;;;4.57;;
41689;SDS011;27372;42.658;23.256;2023-12-04T11:23:50;9.52;;;4.50;;
41689;SDS011;27372;42.658;23.256;2023-12-04T11:26:15;6.15;;;4.47;;
41689;SDS011;27372;42.658;23.256;2023-12-04T11:28:42;6.82;;;4.30;;
41689;SDS011;27372;42.658;23.256;2023-12-04T11:31:09;6.75;;;4.70;;
41689;SDS011;27372;42.658;23.256;2023-12-04T11:33:35;6.22;;;4.50;;
41689;SDS011;27372;42.658;23.256;2023-12-04T11:36:05;8.55;;;4.47;;
41689;SDS011;27372;42.658;23.256;2023-12-04T11:38:32;9.05;;;4.57;;
41689;SDS011;27372;42.658;23.256;2023-12-04T11:40:58;6.93;;;4.57;;
41689;SDS011;27372;42.658;23.256;2023-12-04T11:43:24;8.80;;;4.88;;
41689;SDS011;27372;42.658;23.256;2023-12-04T11:45:51;6.93;;;4.70;;
41689;SDS011;27372;42.658;23.256;2023-12-04T11:48:16;5.60;;;4.53;;
41689;SDS011;27372;42.658;23.256;2023-12-04T11:50:47;6.05;;;4.32;;
41689;SDS011;27372;42.658;23.256;2023-12-04T11:53:12;6.57;;;4.53;;
41689;SDS011;27372;42.658;23.256;2023-12-04T11:55:39;5.85;;;4.50;;
41689;SDS011;27372;42.658;23.256;2023-12-04T11:58:09;8.95;;;5.38;;
41689;SDS011;27372;42.658;23.256;2023-12-04T12:00:36;7.65;;;5.22;;
41689;SDS011;27372;42.658;23.256;2023-12-04T12:03:04;13.40;;;5.93;;
41689;SDS011;27372;42.658;23.256;2023-12-04T12:05:32;7.10;;;5.40;;
41689;SDS011;27372;42.658;23.256;2023-12-04T12:08:05;10.38;;;6.80;;
41689;SDS011;27372;42.658;23.256;2023-12-04T12:10:31;10.82;;;6.85;;
41689;SDS011;27372;42.658;23.256;2023-12-04T12:12:58;7.82;;;5.95;;
41689;SDS011;27372;42.658;23.256;2023-12-04T12:15:24;8.10;;;5.38;;
41689;SDS011;27372;42.658;23.256;2023-12-04T12:17:50;8.10;;;5.45;;
41689;SDS011;27372;42.658;23.256;2023-12-04T12:20:16;9.88;;;5.65;;
41689;SDS011;27372;42.658;23.256;2023-12-04T12:22:42;9.65;;;5.65;;
41689;SDS011;27372;42.658;23.256;2023-12-04T12:25:11;8.85;;;5.38;;
41689;SDS011;27372;42.658;23.256;2023-12-04T12:27:37;9.30;;;5.55;;
41689;SDS011;27372;42.658;23.256;2023-12-04T12:30:03;9.00;;;5.97;;
41689;SDS011;27372;42.658;23.256;2023-12-04T12:32:35;12.68;;;5.90;;
41689;SDS011;27372;42.658;23.256;2023-12-04T12:35:01;10.88;;;5.50;;
41689;SDS011;27372;42.658;23.256;2023-12-04T12:37:28;8.60;;;5.68;;
41689;SDS011;27372;42.658;23.256;2023-12-04T12:39:54;8.35;;;5.90;;
41689;SDS011;27372;42.658;23.256;2023-12-04T12:42:26;9.70;;;5.20;;
41689;SDS011;27372;42.658;23.256;2023-12-04T12:44:53;6.93;;;5.10;;
41689;SDS011;27372;42.658;23.256;2023-12-04T12:47:20;7.28;;;5.53;;
41689;SDS011;27372;42.658;23.256;2023-12-04T12:49:46;8.13;;;5.80;;
41689;SDS011;27372;42.658;23.256;2023-12-04T12:52:12;10.68;;;6.18;;
41689;SDS011;27372;42.658;23.256;2023-12-04T12:54:37;9.80;;;5.97;;
41689;SDS011;27372;42.658;23.256;2023-12-04T12:57:07;8.60;;;6.35;;
41689;SDS011;27372;42.658;23.256;2023-12-04T12:59:33;11.80;;;6.82;;
41689;SDS011;27372;42.658;23.256;2023-12-04T13:01:59;12.38;;;7.22;;
41689;SDS011;27372;42.658;23.256;2023-12-04T13:04:25;14.05;;;8.00;;
41689;SDS011;27372;42.658;23.256;2023-12-04T13:06:51;10.60;;;6.85;;
41689;SDS011;27372;42.658;23.256;2023-12-04T13:09:17;10.88;;;7.43;;
41689;SDS011;27372;42.658;23.256;2023-12-04T13:11:44;12.60;;;7.57;;
41689;SDS011;27372;42.658;23.256;2023-12-04T13:14:10;13.73;;;8.23;;
41689;SDS011;27372;42.658;23.256;2023-12-04T13:16:36;12.38;;;7.90;;
41689;SDS011;27372;42.658;23.256;2023-12-04T13:19:02;13.70;;;8.30;;
41689;SDS011;27372;42.658;23.256;2023-12-04T13:21:27;11.10;;;7.45;;
41689;SDS011;27372;42.658;23.256;2023-12-04T13:23:54;15.38;;;7.88;;
41689;SDS011;27372;42.658;23.256;2023-12-04T13:26:20;12.43;;;7.10;;
41689;SDS011;27372;42.658;23.256;2023-12-04T13:28:46;10.18;;;7.07;;
41689;SDS011;27372;42.658;23.256;2023-12-04T13:31:12;8.73;;;5.97;;
41689;SDS011;27372;42.658;23.256;2023-12-04T13:33:38;13.15;;;6.60;;
41689;SDS011;27372;42.658;23.256;2023-12-04T13:36:04;8.30;;;6.07;;
41689;SDS011;27372;42.658;23.256;2023-12-04T13:38:29;9.93;;;7.00;;
41689;SDS011;27372;42.658;23.256;2023-12-04T13:40:55;9.88;;;6.50;;
41689;SDS011;27372;42.658;23.256;2023-12-04T13:43:53;11.17;;;7.20;;
41689;SDS011;27372;42.658;23.256;2023-12-04T13:46:20;11.82;;;7.57;;
41689;SDS011;27372;42.658;23.256;2023-12-04T13:48:45;13.27;;;7.35;;
41689;SDS011;27372;42.658;23.256;2023-12-04T13:51:11;13.77;;;7.43;;
41689;SDS011;27372;42.658;23.256;2023-12-04T13:53:38;13.05;;;7.78;;
41689;SDS011;27372;42.658;23.256;2023-12-04T13:56:09;12.85;;;8.05;;
41689;SDS011;27372;42.658;23.256;2023-12-04T13:59:00;11.70;;;7.50;;
41689;SDS011;27372;42.658;23.256;2023-12-04T14:01:28;12.27;;;6.90;;
41689;SDS011;27372;42.658;23.256;2023-12-04T14:03:55;12.95;;;7.80;;
41689;SDS011;27372;42.658;23.256;2023-12-04T14:06:26;14.20;;;7.40;;
41689;SDS011;27372;42.658;23.256;2023-12-04T14:08:52;14.98;;;7.80;;
41689;SDS011;27372;42.658;23.256;2023-12-04T14:11:18;12.98;;;7.63;;
41689;SDS011;27372;42.658;23.256;2023-12-04T14:13:43;19.17;;;8.63;;
41689;SDS011;27372;42.658;23.256;2023-12-04T14:16:09;16.00;;;7.65;;
41689;SDS011;27372;42.658;23.256;2023-12-04T14:18:35;17.25;;;8.20;;
41689;SDS011;27372;42.658;23.256;2023-12-04T14:21:00;33.88;;;17.20;;
41689;SDS011;27372;42.658;23.256;2023-12-04T14:23:26;13.20;;;7.93;;
41689;SDS011;27372;42.658;23.256;2023-12-04T14:25:52;19.80;;;8.55;;
41689;SDS011;27372;42.658;23.256;2023-12-04T14:28:17;20.42;;;9.30;;
41689;SDS011;27372;42.658;23.256;2023-12-04T14:30:43;18.42;;;9.63;;
41689;SDS011;27372;42.658;23.256;2023-12-04T14:33:09;18.38;;;9.40;;